Airfield :
LOGIN :

Register | Disclaimer

   EN    FR    IT 

 










Legend :    VFR   Marginal VFR   IFR   Intensive IFR   Very Intensive IFR
Visi :
Ceiling :
>= 8 km
>= 3000ft
5 to 8 km
1000 to 3000 ft
1500m to 5 km
500 to 1000 ft
800 to 1500m
200 to 500 ft
< 800m
< 200 ft
Symbols :   Thunderstorms  Fog  Heavy snow  Heavy precipitations  Wind > 20 kt
SIGMETs :     Misc.  Thunderstorms  Icing  Turbulence  Mountain Waves  Volcanic Ashes






- Airport Elevation : 202 ft
- IATA code : LGW


EGKK - London Gatwick

CURRENT METAR :
  • 061820Z VRB02KT CAVOK 04/M02 Q1039

EXPIRED METARs :
  • 061750Z 28003KT 240V320 CAVOK 05/M02 Q1039
  • 061720Z 28005KT CAVOK 06/M01 Q1039
  • 061650Z 27005KT CAVOK 07/M01 Q1039
  • 061620Z 28006KT CAVOK 09/M02 Q1039
  • 061550Z 28005KT CAVOK 10/M01 Q1039

TAF TAF EGKK
Valid from the 06 at 18:00 until the 08 at 00:00 UTC


061704Z 0618/0724 VRB02KT 9999 FEW045
PROB40 0618/0624 8000
BECMG 0700/0703 3000 BR MIFG
PROB30 0702/0710 0300 FZFG VV///
BECMG 0709/0712 9999 NSW
TEMPO 0718/0724 6000
PROB30 0722/0724 4000 BR



MET'MAP, your aeronautical weather chart ! - Copyright ORBIFLY December 2007 - Disclaimer

ORBIFLY MET'MAP TEAM :

Programming & Development : Alexandra Zaïnal
Original concept : Baudouin d'Aumeries
Technical & hardware support : Manuel Goepfert
Assistance : Marc-Olivier Méhu




SOURCES & CREDITS :

   NOAA